createdAt,value
2022-11-14T00:00:14.036Z,82.89
2022-11-14T00:05:16.397Z,82.89
2022-11-14T00:10:18.996Z,82.92
2022-11-14T00:15:21.254Z,83.31
2022-11-14T00:20:23.615Z,82.89
2022-11-14T00:25:26.129Z,82.83
2022-11-14T00:30:28.947Z,83.02
2022-11-14T00:35:31.258Z,83.10
2022-11-14T00:40:33.457Z,83.23
2022-11-14T00:45:35.653Z,83.10
2022-11-14T00:50:38.640Z,83.11
2022-11-14T00:55:41.673Z,82.99
2022-11-14T01:00:43.964Z,82.93
2022-11-14T01:05:48.808Z,82.81
2022-11-14T01:10:51.824Z,83.10
2022-11-14T01:15:55.363Z,82.83
2022-11-14T01:20:58.338Z,82.49
2022-11-14T01:26:09.306Z,82.50
2022-11-14T01:31:15.993Z,82.76
2022-11-14T01:36:19.223Z,82.30
2022-11-14T01:41:22.250Z,82.36
2022-11-14T01:46:31.822Z,82.36
2022-11-14T01:51:42.070Z,82.27
2022-11-14T01:56:49.955Z,82.09
2022-11-14T02:01:54.145Z,82.35
2022-11-14T02:07:00.035Z,82.13
2022-11-14T02:12:05.527Z,82.06
2022-11-14T02:17:28.365Z,82.27
2022-11-14T02:22:30.625Z,82.26
2022-11-14T02:27:35.184Z,82.20
2022-11-14T02:33:08.854Z,82.23
2022-11-14T02:37:59.834Z,82.19
2022-11-14T02:43:02.121Z,82.36
2022-11-14T02:48:04.646Z,82.19
2022-11-14T02:53:06.836Z,82.47
2022-11-14T02:58:09.374Z,82.40
2022-11-14T03:03:11.907Z,82.58
2022-11-14T03:08:14.092Z,82.35
2022-11-14T03:13:16.330Z,82.51
2022-11-14T03:18:18.492Z,82.53
2022-11-14T03:23:20.655Z,82.98
2022-11-14T03:28:22.806Z,83.11
2022-11-14T03:33:25.397Z,83.58
2022-11-14T03:38:27.906Z,83.46
2022-11-14T03:43:34.706Z,83.54
2022-11-14T03:48:37.007Z,82.93
2022-11-14T03:53:39.170Z,83.89
2022-11-14T03:58:41.507Z,84.07
2022-11-14T04:03:43.688Z,83.54
2022-11-14T04:08:45.873Z,83.74
2022-11-14T04:13:48.070Z,83.02
2022-11-14T04:18:50.435Z,83.12
2022-11-14T04:23:52.635Z,83.39
2022-11-14T04:28:55.056Z,83.21
2022-11-14T04:33:57.435Z,83.34
2022-11-14T04:38:59.955Z,83.22
2022-11-14T04:44:02.877Z,82.84
2022-11-14T04:49:05.269Z,83.03
2022-11-14T04:54:07.447Z,83.10
2022-11-14T04:59:09.657Z,83.63
2022-11-14T05:04:12.002Z,83.64
2022-11-14T05:09:14.219Z,84.01
2022-11-14T05:14:16.676Z,84.02
2022-11-14T05:19:18.896Z,84.30
2022-11-14T05:24:21.128Z,84.04
2022-11-14T05:29:23.342Z,84.10
2022-11-14T05:34:26.055Z,83.91
2022-11-14T05:39:30.911Z,84.01
2022-11-14T05:44:33.208Z,84.52
2022-11-14T05:49:35.409Z,84.53
2022-11-14T05:54:37.896Z,84.37
2022-11-14T05:59:40.117Z,84.67
2022-11-14T06:04:42.427Z,84.45
2022-11-14T06:09:44.645Z,84.42
2022-11-14T06:14:46.821Z,84.94
2022-11-14T06:19:49.018Z,84.99
2022-11-14T06:24:51.386Z,84.97
2022-11-14T06:29:53.649Z,85.18
2022-11-14T06:34:55.876Z,85.06
2022-11-14T06:39:58.111Z,85.04
2022-11-14T06:45:00.337Z,86.15
2022-11-14T06:50:02.514Z,85.51
2022-11-14T06:55:05.055Z,85.96
2022-11-14T07:00:08.089Z,85.28
2022-11-14T07:05:10.457Z,85.37
2022-11-14T07:10:12.838Z,85.39
2022-11-14T07:15:15.196Z,85.19
2022-11-14T07:20:18.902Z,85.18
2022-11-14T07:25:23.230Z,84.98
2022-11-14T07:30:25.466Z,84.71
2022-11-14T07:35:28.004Z,85.10
2022-11-14T07:40:30.724Z,84.67
2022-11-14T07:45:33.442Z,84.42
2022-11-14T07:50:35.802Z,84.03
2022-11-14T07:55:39.196Z,83.60
2022-11-14T08:00:41.468Z,83.96
2022-11-14T08:05:43.770Z,83.81
2022-11-14T08:10:46.009Z,83.37
2022-11-14T08:15:48.178Z,83.04
2022-11-14T08:20:59.597Z,82.88
2022-11-14T08:26:01.883Z,82.80
2022-11-14T08:31:05.247Z,82.58
2022-11-14T08:36:08.195Z,82.12
2022-11-14T08:41:10.477Z,81.81
2022-11-14T08:46:12.825Z,81.50
2022-11-14T08:51:15.069Z,81.35
2022-11-14T08:56:17.481Z,81.08
2022-11-14T09:01:19.837Z,80.29
2022-11-14T09:06:22.196Z,80.18
2022-11-14T09:11:24.656Z,80.02
2022-11-14T09:16:26.896Z,78.39
2022-11-14T09:21:29.209Z,78.02
2022-11-14T09:26:31.432Z,77.94
2022-11-14T09:31:33.719Z,77.37
2022-11-14T09:36:36.101Z,76.85
2022-11-14T09:41:44.019Z,76.81
2022-11-14T09:46:50.755Z,77.29
2022-11-14T09:52:01.747Z,76.72
2022-11-14T09:57:04.037Z,77.25
2022-11-14T10:02:20.720Z,76.90
2022-11-14T10:07:25.537Z,77.02
2022-11-14T10:12:38.260Z,76.58
2022-11-14T10:17:45.971Z,76.57
2022-11-14T10:23:15.741Z,76.37
2022-11-14T10:28:17.913Z,76.24
2022-11-14T10:33:51.610Z,75.41
2022-11-14T10:39:05.799Z,75.74
2022-11-14T10:44:16.474Z,75.14
2022-11-14T10:49:22.037Z,75.64
2022-11-14T10:54:42.589Z,75.55
2022-11-14T10:59:44.983Z,74.84
2022-11-14T11:04:47.434Z,74.50
2022-11-14T11:10:18.725Z,73.87
2022-11-14T11:15:44.091Z,73.39
2022-11-14T11:21:03.725Z,73.33
2022-11-14T11:26:26.695Z,72.67
2022-11-14T11:31:29.204Z,72.52
2022-11-14T11:36:41.414Z,71.80
2022-11-14T11:47:16.088Z,70.95
2022-11-14T11:52:30.599Z,70.40
2022-11-14T11:57:55.715Z,69.96
2022-11-14T12:02:59.505Z,69.34
2022-11-14T12:08:10.002Z,69.65
2022-11-14T12:13:24.353Z,68.94
2022-11-14T12:18:54.624Z,68.52
2022-11-14T12:24:15.306Z,68.93
2022-11-14T12:29:36.255Z,68.63
2022-11-14T12:34:42.618Z,68.21
2022-11-14T12:40:00.262Z,66.77
2022-11-14T12:45:02.651Z,66.36
2022-11-14T12:50:25.942Z,65.59
2022-11-14T12:55:48.489Z,65.29
2022-11-14T13:00:50.811Z,64.48
2022-11-14T13:06:01.793Z,64.28
2022-11-14T13:11:53.396Z,63.52
2022-11-14T13:17:37.392Z,62.79
2022-11-14T13:22:42.104Z,61.94
2022-11-14T13:33:07.792Z,60.05
2022-11-14T13:38:25.841Z,59.38
2022-11-14T13:43:43.555Z,58.68
2022-11-14T13:49:05.800Z,58.11
2022-11-14T13:54:17.460Z,57.74
2022-11-14T13:59:41.743Z,57.23
2022-11-14T14:05:04.826Z,57.08
2022-11-14T14:10:16.397Z,56.61
2022-11-14T14:15:27.734Z,56.45
2022-11-14T14:20:48.100Z,55.88
2022-11-14T14:26:25.899Z,56.14
2022-11-14T14:31:37.573Z,56.69
2022-11-14T14:36:50.953Z,57.14
2022-11-14T14:41:55.951Z,58.36
2022-11-14T14:46:58.897Z,59.11
2022-11-14T14:52:01.186Z,59.72
2022-11-14T14:57:03.907Z,60.44
2022-11-14T15:02:16.891Z,60.92
2022-11-14T15:07:25.400Z,61.50
2022-11-14T15:12:31.110Z,62.17
2022-11-14T15:17:35.998Z,62.99
2022-11-14T15:22:39.727Z,63.89
2022-11-14T15:27:50.683Z,64.33
2022-11-14T15:32:55.834Z,64.77
2022-11-14T15:38:43.597Z,65.38
2022-11-14T15:43:46.233Z,65.62
2022-11-14T15:48:48.453Z,66.29
2022-11-14T15:53:52.414Z,66.78
2022-11-14T15:58:54.916Z,67.16
2022-11-14T16:03:59.007Z,67.26
2022-11-14T16:09:01.222Z,68.01
2022-11-14T16:14:03.476Z,68.25
2022-11-14T16:19:07.268Z,68.29
2022-11-14T16:24:19.510Z,68.81
2022-11-14T16:29:21.849Z,69.38
2022-11-14T16:34:27.901Z,69.56
2022-11-14T16:39:30.492Z,69.55
2022-11-14T16:44:38.990Z,69.99
2022-11-14T16:49:44.101Z,69.70
2022-11-14T16:54:46.806Z,70.29
2022-11-14T16:59:49.017Z,70.19
2022-11-14T17:04:51.744Z,70.68
2022-11-14T17:09:53.901Z,70.51
2022-11-14T17:14:56.190Z,70.60
2022-11-14T17:19:58.602Z,70.85
2022-11-14T17:25:00.969Z,70.74
2022-11-14T17:30:03.175Z,71.09
2022-11-14T17:35:06.062Z,71.00
2022-11-14T17:40:14.199Z,71.04
2022-11-14T17:45:17.568Z,71.01
2022-11-14T17:50:19.907Z,71.23
2022-11-14T17:55:22.092Z,71.32
2022-11-14T18:00:24.365Z,71.69
2022-11-14T18:05:26.708Z,72.02
2022-11-14T18:10:28.900Z,72.33
2022-11-14T18:15:32.617Z,72.75
2022-11-14T18:20:38.008Z,72.50
2022-11-14T18:25:40.177Z,72.43
2022-11-14T18:30:43.738Z,72.70
2022-11-14T18:35:56.911Z,72.90
2022-11-14T18:41:03.910Z,72.52
2022-11-14T18:46:07.883Z,72.56
2022-11-14T18:51:31.259Z,72.61
2022-11-14T18:56:33.511Z,72.79
2022-11-14T19:01:36.374Z,72.46
2022-11-14T19:06:41.214Z,72.56
2022-11-14T19:12:02.449Z,72.67
2022-11-14T19:17:07.430Z,72.53
2022-11-14T19:22:09.701Z,72.78
2022-11-14T19:27:12.001Z,72.66
2022-11-14T19:32:14.316Z,72.70
2022-11-14T19:37:16.660Z,72.60
2022-11-14T19:42:19.192Z,72.77
2022-11-14T19:47:21.389Z,72.37
2022-11-14T19:52:23.750Z,72.50
2022-11-14T19:57:25.963Z,72.88
2022-11-14T20:02:30.010Z,72.98
2022-11-14T20:07:33.478Z,73.07
2022-11-14T20:12:36.049Z,72.86
2022-11-14T20:17:38.293Z,73.22
2022-11-14T20:22:40.677Z,73.33
2022-11-14T20:27:42.906Z,73.21
2022-11-14T20:32:45.106Z,73.65
2022-11-14T20:37:47.997Z,73.78
2022-11-14T20:42:50.621Z,74.11
2022-11-14T20:47:54.162Z,74.06
2022-11-14T20:52:56.563Z,73.90
2022-11-14T20:57:58.992Z,73.73
2022-11-14T21:03:01.222Z,73.75
2022-11-14T21:08:03.503Z,73.98
2022-11-14T21:13:27.467Z,73.66
2022-11-14T21:18:30.253Z,73.50
2022-11-14T21:23:33.016Z,74.09
2022-11-14T21:28:38.331Z,73.91
2022-11-14T21:33:40.672Z,74.18
2022-11-14T21:38:43.143Z,74.40
2022-11-14T21:43:46.257Z,74.18
2022-11-14T21:48:49.942Z,74.32
2022-11-14T21:53:55.891Z,75.02
2022-11-14T21:59:14.660Z,75.22
2022-11-14T22:04:16.976Z,75.59
2022-11-14T22:09:19.365Z,75.36
2022-11-14T22:14:21.615Z,75.54
2022-11-14T22:19:24.744Z,75.72
2022-11-14T22:24:26.957Z,75.84
2022-11-14T22:29:29.355Z,76.20
2022-11-14T22:34:31.560Z,75.94
2022-11-14T22:39:33.770Z,75.98
2022-11-14T22:44:35.958Z,75.91
2022-11-14T22:49:38.151Z,76.05
2022-11-14T22:54:40.315Z,76.80
2022-11-14T22:59:42.545Z,77.12
2022-11-14T23:04:44.753Z,77.28
2022-11-14T23:09:46.952Z,77.04
2022-11-14T23:14:49.306Z,77.34
2022-11-14T23:19:51.494Z,77.09
2022-11-14T23:24:53.725Z,77.70
2022-11-14T23:29:56.059Z,77.99
2022-11-14T23:34:58.250Z,77.42
2022-11-14T23:40:00.632Z,77.60
2022-11-14T23:45:03.205Z,77.28
2022-11-14T23:50:05.657Z,77.54
2022-11-14T23:55:08.162Z,77.62
